Time;durP1;ratioP1;P1;durP2;ratioP2;P2;SDS_P1;SDS_P2;PMS_P1;PMS_P2;Temp;Humidity;BMP_temperature;BMP_pressure;BME280_temperature;BME280_humidity;BME280_pressure;Samples;Min_cycle;Max_cycle;Signal;HPM_P1;HPM_P2
2021/11/26 00:00:55;;;;;;;;;9.50;6.50;;;;;6.82;85.75;100794.19;5040858;28;45286;-57
2021/11/26 00:03:21;;;;;;;;;7.75;6.00;;;;;6.83;85.81;100790.72;5040562;28;45161;-56
2021/11/26 00:05:46;;;;;;;;;6.00;5.75;;;;;6.83;85.86;100788.16;5041029;28;45308;-56
2021/11/26 00:08:12;;;;;;;;;13.00;8.00;;;;;6.85;85.44;100786.41;5040498;28;45395;-56
2021/11/26 00:10:37;;;;;;;;;13.50;6.00;;;;;6.86;85.73;100782.94;5040580;28;46156;-58
2021/11/26 00:13:06;;;;;;;;;9.50;6.75;;;;;6.83;85.70;100776.97;5039836;28;45283;-57
2021/11/26 00:18:04;;;;;;;;;6.75;6.75;;;;;6.81;85.89;100769.22;5040289;28;45320;-57
2021/11/26 00:20:29;;;;;;;;;6.00;3.50;;;;;6.80;85.33;100772.66;5040457;28;47029;-58
2021/11/26 00:22:55;;;;;;;;;6.25;6.00;;;;;6.79;85.74;100765.78;5040265;28;45445;-58
2021/11/26 00:25:20;;;;;;;;;11.00;8.25;;;;;6.81;85.65;100765.75;5040397;28;45335;-58
2021/11/26 00:27:46;;;;;;;;;6.00;6.00;;;;;6.81;85.91;100766.66;5039580;28;45318;-57
2021/11/26 00:30:11;;;;;;;;;6.00;6.00;;;;;6.83;85.55;100772.66;5040404;28;45318;-57
2021/11/26 00:32:36;;;;;;;;;10.75;7.00;;;;;6.82;85.67;100759.75;5028483;28;45400;-57
2021/11/26 00:35:04;;;;;;;;;7.00;7.00;;;;;6.91;85.62;100767.38;5040454;28;45264;-57
2021/11/26 00:37:29;;;;;;;;;10.00;7.50;;;;;6.94;85.50;100772.50;5039964;28;45220;-58
2021/11/26 00:39:55;;;;;;;;;10.75;10.00;;;;;6.90;85.46;100763.94;5040265;28;45236;-58
2021/11/26 00:42:20;;;;;;;;;10.75;9.75;;;;;6.84;85.58;100748.53;5047190;28;45170;-57
2021/11/26 00:44:46;;;;;;;;;9.50;8.00;;;;;6.86;85.82;100759.69;5037859;28;45472;-58
2021/11/26 00:47:12;;;;;;;;;10.50;10.00;;;;;6.82;85.71;100752.00;5039809;28;45543;-58
2021/11/26 00:49:37;;;;;;;;;9.50;8.00;;;;;6.82;85.02;100750.28;5040250;28;45237;-58
2021/11/26 00:52:03;;;;;;;;;9.50;8.25;;;;;6.82;85.49;100754.59;5026114;28;45225;-58
2021/11/26 00:54:28;;;;;;;;;7.75;6.75;;;;;6.80;85.64;100752.00;5040490;28;45520;-57
2021/11/26 00:56:53;;;;;;;;;11.25;7.00;;;;;6.80;85.61;100740.81;5039207;28;45367;-57
2021/11/26 00:59:19;;;;;;;;;5.75;4.75;;;;;6.79;85.64;100746.84;5039829;28;45478;-57
2021/11/26 01:01:44;;;;;;;;;11.75;9.00;;;;;6.74;85.22;100746.06;5039524;28;45442;-57
2021/11/26 01:04:10;;;;;;;;;7.00;7.00;;;;;6.67;85.47;100740.13;5040000;28;45304;-57
2021/11/26 01:06:35;;;;;;;;;8.50;8.50;;;;;6.66;85.73;100741.00;5039423;28;45492;-57
2021/11/26 01:09:00;;;;;;;;;10.00;8.00;;;;;6.68;85.67;100741.81;5039770;28;45325;-57
2021/11/26 01:11:26;;;;;;;;;9.25;6.50;;;;;6.68;85.55;100734.09;5039313;28;45331;-56
2021/11/26 01:13:52;;;;;;;;;8.00;6.00;;;;;6.67;85.62;100738.38;5039692;28;45375;-56
2021/11/26 01:16:17;;;;;;;;;10.25;6.75;;;;;6.70;85.07;100740.09;5039437;28;45504;-56
2021/11/26 01:18:43;;;;;;;;;10.50;6.25;;;;;6.67;85.16;100729.78;5039542;28;45536;-56
2021/11/26 01:21:09;;;;;;;;;6.50;6.00;;;;;6.63;84.96;100725.53;5039393;28;45245;-57
2021/11/26 01:23:35;;;;;;;;;11.25;6.00;;;;;6.61;85.49;100722.13;5039634;28;45265;-57
2021/11/26 01:26:01;;;;;;;;;8.75;8.75;;;;;6.61;85.56;100730.72;5039364;28;45435;-56
2021/11/26 01:28:26;;;;;;;;;10.00;9.75;;;;;6.63;85.61;100720.38;5038831;28;46250;-57
2021/11/26 01:30:52;;;;;;;;;11.25;7.25;;;;;6.61;85.38;100720.41;5040798;28;45467;-57
2021/11/26 01:33:19;;;;;;;;;11.25;7.75;;;;;6.63;85.53;100717.78;5027102;28;45371;-57
2021/11/26 01:35:49;;;;;;;;;14.75;9.00;;;;;6.63;85.47;100718.66;5039586;28;45381;-57
2021/11/26 01:38:15;;;;;;;;;11.00;9.00;;;;;6.59;85.53;100714.38;5042823;28;46893;-57
2021/11/26 01:40:41;;;;;;;;;15.50;9.00;;;;;6.59;85.59;100711.78;5043051;28;45383;-57
2021/11/26 01:43:10;;;;;;;;;16.50;12.00;;;;;6.58;85.51;100701.47;5049712;28;45276;-57
2021/11/26 01:45:47;;;;;;;;;14.75;11.25;;;;;6.58;85.49;100698.91;5040356;28;45500;-57
2021/11/26 01:48:14;;;;;;;;;11.00;11.00;;;;;6.56;85.95;100695.47;5042760;28;47112;-57
2021/11/26 01:50:39;;;;;;;;;11.50;7.75;;;;;6.56;85.34;100703.22;5039790;28;45207;-57
2021/11/26 01:53:05;;;;;;;;;13.75;10.00;;;;;6.54;85.58;100692.06;5031860;28;45293;-57
2021/11/26 01:55:31;;;;;;;;;9.50;7.25;;;;;6.52;85.77;100698.97;5042545;28;45535;-57
2021/11/26 01:57:56;;;;;;;;;8.50;8.00;;;;;6.50;85.71;100687.81;5042054;28;45193;-57
2021/11/26 02:00:26;;;;;;;;;14.00;10.00;;;;;6.48;85.62;100680.09;5042362;28;45358;-56
2021/11/26 02:02:52;;;;;;;;;10.00;10.00;;;;;6.47;85.59;100678.38;5042888;28;45371;-56
2021/11/26 02:05:17;;;;;;;;;8.75;8.75;;;;;6.48;85.40;100677.50;5042416;28;45534;-55
2021/11/26 02:07:43;;;;;;;;;10.00;9.25;;;;;6.48;85.77;100668.91;5042564;28;46299;-55
2021/11/26 02:10:10;;;;;;;;;10.25;8.00;;;;;6.48;85.44;100669.78;5042288;28;45364;-56
2021/11/26 02:12:35;;;;;;;;;15.25;9.25;;;;;6.46;85.82;100668.94;5042097;28;45265;-55
2021/11/26 02:15:01;;;;;;;;;6.25;5.25;;;;;6.45;86.01;100662.06;5042297;28;45591;-57
2021/11/26 02:17:27;;;;;;;;;8.75;6.75;;;;;6.44;85.59;100654.34;5042342;28;45281;-56
2021/11/26 02:19:55;;;;;;;;;10.25;9.00;;;;;6.42;85.73;100644.03;5042291;28;45407;-57
2021/11/26 02:22:20;;;;;;;;;9.50;9.25;;;;;6.33;85.99;100652.72;5042364;28;45477;-57
2021/11/26 02:24:46;;;;;;;;;11.00;9.00;;;;;6.30;86.30;100646.75;5042175;28;45421;-56
2021/11/26 02:27:15;;;;;;;;;14.50;11.25;;;;;6.29;86.54;100645.03;5041581;28;46049;-56
2021/11/26 02:29:40;;;;;;;;;11.25;8.00;;;;;6.31;86.54;100640.72;5042079;28;45221;-56
2021/11/26 02:32:06;;;;;;;;;12.75;12.75;;;;;6.32;86.24;100639.84;5033558;28;45230;-56
2021/11/26 02:34:31;;;;;;;;;14.25;12.00;;;;;6.32;86.12;100635.53;5039793;28;45243;-57
2021/11/26 02:36:57;;;;;;;;;12.50;9.50;;;;;6.30;85.73;100626.97;5040893;28;45514;-56
2021/11/26 02:39:22;;;;;;;;;14.75;11.50;;;;;6.34;86.32;100632.94;5039859;28;45279;-56
2021/11/26 02:41:49;;;;;;;;;19.25;10.00;;;;;6.33;85.95;100632.06;5049691;28;45304;-56
2021/11/26 02:44:14;;;;;;;;;10.00;8.25;;;;;6.31;85.76;100632.97;5040056;28;45434;-57
2021/11/26 02:46:40;;;;;;;;;8.50;7.25;;;;;6.29;86.79;100632.13;5041739;28;46088;-57
2021/11/26 02:49:06;;;;;;;;;11.00;9.00;;;;;6.26;86.54;100622.72;5041742;28;45477;-57
2021/11/26 02:51:32;;;;;;;;;10.50;9.75;;;;;6.24;86.51;100611.56;5032536;28;45348;-57
2021/11/26 02:53:58;;;;;;;;;12.50;8.00;;;;;6.20;86.53;100615.00;5041710;28;45507;-57
2021/11/26 02:56:24;;;;;;;;;9.00;9.00;;;;;6.15;86.91;100606.47;5019580;28;45983;-56
2021/11/26 02:58:49;;;;;;;;;8.00;7.25;;;;;6.16;86.45;100604.75;5041147;28;45514;-56
2021/11/26 03:01:15;;;;;;;;;15.25;12.00;;;;;6.16;86.45;100591.84;5041748;28;45502;-56
2021/11/26 03:03:40;;;;;;;;;13.50;13.50;;;;;6.16;86.49;100594.44;5040997;28;45233;-56
2021/11/26 03:06:06;;;;;;;;;14.25;10.50;;;;;6.13;86.79;100585.00;5017776;28;48087;-56
2021/11/26 03:08:34;;;;;;;;;11.25;8.75;;;;;6.08;87.19;100579.06;5034936;28;46069;-56
2021/11/26 03:11:01;;;;;;;;;10.25;9.25;;;;;5.98;87.51;100583.44;5039174;28;45451;-56
2021/11/26 03:13:27;;;;;;;;;11.25;10.00;;;;;5.93;87.47;100580.06;5038753;28;45578;-56
2021/11/26 03:15:53;;;;;;;;;11.00;7.25;;;;;5.89;87.75;100585.25;5039210;28;45641;-57
2021/11/26 03:18:20;;;;;;;;;12.75;10.75;;;;;5.84;87.50;100579.31;5039213;28;45578;-57
2021/11/26 03:20:49;;;;;;;;;12.25;8.00;;;;;5.82;87.80;100575.91;5039749;28;45344;-56
2021/11/26 03:23:16;;;;;;;;;11.00;9.00;;;;;5.83;87.72;100580.19;5041296;28;45323;-56
2021/11/26 03:25:41;;;;;;;;;7.75;7.75;;;;;5.79;87.92;100569.00;5040285;28;45364;-56
2021/11/26 03:28:12;;;;;;;;;24.00;11.50;;;;;5.77;87.89;100566.47;5038126;28;45610;-56
2021/11/26 03:30:39;;;;;;;;;11.75;9.75;;;;;5.75;88.25;100552.72;5040051;28;45375;-56
2021/11/26 03:33:05;;;;;;;;;12.75;9.25;;;;;5.73;87.87;100551.91;5026946;28;45403;-56
2021/11/26 03:35:32;;;;;;;;;16.75;10.75;;;;;5.69;88.46;100539.91;5038509;28;45464;-56
2021/11/26 03:37:57;;;;;;;;;17.00;11.75;;;;;5.72;88.42;100545.03;5038478;28;45403;-56
2021/11/26 03:40:25;;;;;;;;;12.25;12.25;;;;;5.70;88.44;100539.03;5038733;28;45470;-56
2021/11/26 03:42:51;;;;;;;;;23.50;12.75;;;;;5.68;88.82;100538.22;5048328;28;45529;-56
2021/11/26 03:45:20;;;;;;;;;13.75;11.25;;;;;5.66;88.41;100529.63;5038514;28;45517;-55
2021/11/26 03:47:46;;;;;;;;;13.50;11.75;;;;;5.61;88.31;100520.25;5040885;28;45728;-56
2021/11/26 03:50:12;;;;;;;;;12.00;8.50;;;;;5.58;88.67;100521.13;5040504;28;45330;-56
2021/11/26 03:52:38;;;;;;;;;16.75;11.25;;;;;5.56;88.96;100512.53;5027110;28;45316;-56
2021/11/26 03:55:05;;;;;;;;;9.75;9.00;;;;;5.55;89.33;100521.16;5040353;28;46149;-56
2021/11/26 03:57:30;;;;;;;;;14.25;13.25;;;;;5.50;89.84;100517.78;5039776;28;45919;-56
2021/11/26 03:59:56;;;;;;;;;21.25;12.50;;;;;5.53;89.86;100512.59;5039706;28;45510;-56
2021/11/26 04:02:21;;;;;;;;;16.00;12.50;;;;;5.53;89.63;100506.56;5037259;28;45458;-56
2021/11/26 04:04:46;;;;;;;;;13.25;12.00;;;;;5.58;89.79;100503.06;5030062;28;45157;-56
2021/11/26 04:07:12;;;;;;;;;15.00;9.50;;;;;5.60;89.39;100506.47;5040451;28;45272;-56
2021/11/26 04:09:37;;;;;;;;;15.75;14.75;;;;;5.60;89.35;100488.44;5040623;28;45430;-55
2021/11/26 04:12:03;;;;;;;;;15.75;11.75;;;;;5.58;89.65;100492.75;5039733;28;45313;-56
2021/11/26 04:14:28;;;;;;;;;14.50;12.25;;;;;5.55;89.96;100487.66;5040231;28;45895;-55
2021/11/26 04:16:53;;;;;;;;;19.50;15.00;;;;;5.56;90.05;100484.19;5040321;28;45202;-56
2021/11/26 04:19:19;;;;;;;;;16.25;9.50;;;;;5.56;89.81;100476.47;5036496;28;45372;-58
2021/11/26 04:21:44;;;;;;;;;14.75;12.25;;;;;5.57;90.45;100480.75;5040395;28;45393;-56
2021/11/26 04:24:10;;;;;;;;;11.75;11.75;;;;;5.60;90.31;100478.13;5018931;28;46686;-58
2021/11/26 04:26:37;;;;;;;;;20.75;12.50;;;;;5.63;89.71;100478.13;5039914;28;45280;-58
2021/11/26 04:29:02;;;;;;;;;16.75;13.50;;;;;5.69;90.35;100477.19;5040497;28;45438;-56
2021/11/26 04:31:28;;;;;;;;;14.00;13.25;;;;;5.74;89.76;100463.34;5036263;28;45581;-57
2021/11/26 04:33:54;;;;;;;;;17.50;13.25;;;;;5.79;89.81;100464.16;5032824;28;45448;-58
2021/11/26 04:36:20;;;;;;;;;17.75;11.75;;;;;5.85;89.80;100457.22;5040236;28;45807;-59
2021/11/26 04:38:46;;;;;;;;;14.25;10.00;;;;;5.89;89.35;100451.16;5040217;28;45310;-60
2021/11/26 04:41:11;;;;;;;;;16.25;14.25;;;;;5.86;90.05;100449.47;5044364;28;45588;-59
2021/11/26 04:43:37;;;;;;;;;15.75;12.75;;;;;5.85;89.01;100444.34;5039419;28;46009;-59
2021/11/26 04:46:02;;;;;;;;;17.75;13.00;;;;;5.89;89.78;100446.00;5038029;28;45551;-59
2021/11/26 04:48:27;;;;;;;;;13.25;12.00;;;;;5.88;89.58;100446.88;5039968;28;45431;-58
2021/11/26 04:50:53;;;;;;;;;13.00;12.75;;;;;5.88;89.61;100446.88;5035073;28;45378;-58
2021/11/26 04:53:19;;;;;;;;;13.75;11.25;;;;;5.83;89.91;100448.66;5028298;28;46315;-62
2021/11/26 04:55:45;;;;;;;;;15.75;13.25;;;;;5.82;89.81;100452.97;5037402;28;45434;-58
2021/11/26 04:58:11;;;;;;;;;15.00;13.50;;;;;5.80;89.28;100441.78;5036909;28;45438;-57
2021/11/26 05:00:37;;;;;;;;;19.75;16.00;;;;;5.81;89.32;100435.78;5037348;28;45485;-57
2021/11/26 05:03:02;;;;;;;;;17.25;13.25;;;;;5.84;89.40;100437.47;5037243;28;46152;-58
2021/11/26 05:05:28;;;;;;;;;17.00;15.50;;;;;5.89;89.61;100427.94;5037300;28;45446;-58
2021/11/26 05:07:53;;;;;;;;;14.00;14.00;;;;;5.86;89.77;100423.69;5039469;28;45333;-58
2021/11/26 05:10:20;;;;;;;;;18.75;14.75;;;;;5.83;89.58;100412.56;5016776;28;45403;-58
2021/11/26 05:12:53;;;;;;;;;18.00;16.00;;;;;5.81;89.67;100417.75;5038990;28;45239;-58
2021/11/26 05:15:25;;;;;;;;;21.50;17.50;;;;;5.82;89.27;100411.72;5039716;28;45451;-58
2021/11/26 05:18:03;;;;;;;;;13.00;12.75;;;;;5.82;89.77;100416.03;5039652;28;45433;-58
2021/11/26 05:20:31;;;;;;;;;16.50;13.50;;;;;5.78;89.95;100410.03;5039765;28;45329;-57
2021/11/26 05:22:56;;;;;;;;;16.75;14.50;;;;;5.75;89.34;100398.03;5039313;28;47321;-57
2021/11/26 05:25:22;;;;;;;;;16.50;14.00;;;;;5.72;89.70;100385.19;5039624;28;45353;-57
2021/11/26 05:27:48;;;;;;;;;19.25;15.00;;;;;5.74;89.41;100383.44;5038884;28;45240;-57
2021/11/26 05:30:14;;;;;;;;;21.50;13.25;;;;;5.73;89.56;100379.16;5039271;28;45463;-57
2021/11/26 05:32:40;;;;;;;;;12.00;12.00;;;;;5.72;89.69;100363.72;5028139;28;45348;-57
2021/11/26 05:35:11;;;;;;;;;23.50;17.75;;;;;5.72;89.78;100364.56;5016851;28;45345;-57
2021/11/26 05:37:37;;;;;;;;;20.25;14.25;;;;;5.73;89.21;100361.09;5035323;28;45374;-57
2021/11/26 05:40:04;;;;;;;;;14.00;13.00;;;;;5.74;89.87;100360.22;5039160;28;45323;-57
2021/11/26 05:42:30;;;;;;;;;15.00;12.50;;;;;5.78;89.99;100359.31;5024614;28;47444;-57
2021/11/26 05:44:55;;;;;;;;;16.25;14.25;;;;;5.83;89.51;100350.69;5016693;28;45428;-57
2021/11/26 05:47:21;;;;;;;;;18.75;15.50;;;;;5.91;89.13;100349.72;5019097;28;45481;-57
2021/11/26 05:49:46;;;;;;;;;22.25;14.50;;;;;5.94;89.14;100343.66;5019197;28;45319;-57
2021/11/26 05:52:12;;;;;;;;;16.75;11.75;;;;;5.94;89.32;100338.50;5005275;28;45291;-57
2021/11/26 05:54:37;;;;;;;;;17.25;14.00;;;;;5.96;89.44;100336.75;5019173;28;45308;-57
2021/11/26 05:57:03;;;;;;;;;13.50;12.75;;;;;5.98;89.34;100330.69;5018441;28;45461;-58
2021/11/26 05:59:28;;;;;;;;;18.25;12.75;;;;;6.00;88.73;100334.09;5019179;28;45473;-57
2021/11/26 06:01:54;;;;;;;;;16.00;13.00;;;;;5.99;88.82;100318.63;5018731;28;46103;-57
2021/11/26 06:04:19;;;;;;;;;13.00;10.00;;;;;5.98;88.86;100314.34;5018994;28;45178;-57
2021/11/26 06:06:44;;;;;;;;;14.25;11.75;;;;;5.97;88.65;100325.56;5018813;28;45474;-57
2021/11/26 06:09:10;;;;;;;;;10.00;10.00;;;;;5.99;88.67;100310.91;5018927;28;45245;-58
2021/11/26 06:11:35;;;;;;;;;20.50;13.25;;;;;5.98;88.86;100306.63;5018336;28;45398;-57
2021/11/26 06:14:00;;;;;;;;;14.50;13.00;;;;;5.95;89.00;100306.66;5018475;28;45427;-57
2021/11/26 06:16:28;;;;;;;;;15.75;9.00;;;;;5.94;88.72;100304.97;5009269;28;45275;-57
2021/11/26 06:18:53;;;;;;;;;17.75;11.25;;;;;5.92;88.76;100310.16;5018712;28;45449;-57
2021/11/26 06:21:19;;;;;;;;;12.75;9.50;;;;;5.92;89.16;100305.00;5018461;28;45357;-58
2021/11/26 06:23:44;;;;;;;;;10.50;8.50;;;;;5.96;89.08;100295.47;5021836;28;45350;-58
2021/11/26 06:26:10;;;;;;;;;15.75;11.25;;;;;5.98;88.41;100293.72;5021701;28;45519;-57
2021/11/26 06:28:35;;;;;;;;;10.25;10.00;;;;;6.03;88.80;100294.53;5021459;28;45538;-57
2021/11/26 06:31:01;;;;;;;;;10.00;9.00;;;;;6.07;88.34;100283.28;5021141;28;46237;-57
2021/11/26 06:33:26;;;;;;;;;13.75;8.50;;;;;6.08;87.99;100285.81;5010722;28;45227;-57
2021/11/26 06:35:51;;;;;;;;;11.00;9.50;;;;;6.09;87.75;100276.38;5021182;28;45462;-55
2021/11/26 06:38:17;;;;;;;;;13.25;9.50;;;;;6.07;86.68;100273.81;5021483;28;45449;-55
2021/11/26 06:40:42;;;;;;;;;11.25;9.25;;;;;6.05;86.96;100265.25;5021758;28;45395;-56
2021/11/26 06:43:07;;;;;;;;;12.50;8.00;;;;;6.05;87.08;100257.50;5038654;28;45345;-59
2021/11/26 06:45:33;;;;;;;;;20.75;13.25;;;;;6.04;86.98;100263.53;5038513;28;45459;-59
2021/11/26 06:47:58;;;;;;;;;16.75;8.75;;;;;6.05;86.82;100257.50;5041357;28;45292;-60
2021/11/26 06:50:24;;;;;;;;;11.75;9.00;;;;;6.05;86.89;100249.78;5040488;28;45399;-60
2021/11/26 06:52:49;;;;;;;;;11.00;11.00;;;;;6.07;86.81;100247.16;5027741;28;45201;-59
2021/11/26 06:55:15;;;;;;;;;17.50;7.25;;;;;6.08;86.35;100243.72;5040723;28;45317;-61
2021/11/26 06:57:40;;;;;;;;;12.50;10.50;;;;;6.10;86.21;100241.94;5040251;28;45548;-59
2021/11/26 07:00:09;;;;;;;;;11.50;9.50;;;;;6.05;86.57;100223.13;5040893;28;46109;-61
2021/11/26 07:02:35;;;;;;;;;14.25;11.50;;;;;6.16;87.07;100221.19;5041327;28;45963;-57
2021/11/26 07:05:01;;;;;;;;;14.75;13.25;;;;;6.21;86.95;100214.25;5041283;28;45423;-57
2021/11/26 07:07:27;;;;;;;;;15.75;13.25;;;;;6.27;87.02;100214.13;5040663;28;45369;-57
2021/11/26 07:09:52;;;;;;;;;15.00;11.50;;;;;6.28;86.98;100208.09;5040522;28;46005;-59
2021/11/26 07:12:17;;;;;;;;;18.25;13.75;;;;;6.33;86.79;100213.16;5040085;28;45342;-59
2021/11/26 07:14:45;;;;;;;;;15.25;13.00;;;;;6.32;86.42;100203.72;5040525;28;45277;-60
2021/11/26 07:17:12;;;;;;;;;15.00;12.25;;;;;6.33;86.39;100197.66;5041011;28;45241;-63
2021/11/26 07:19:38;;;;;;;;;14.50;13.00;;;;;6.33;85.68;100202.81;5020993;28;48911;-57
2021/11/26 07:22:05;;;;;;;;;11.25;9.25;;;;;6.27;85.18;100190.06;5014047;28;45386;-57
2021/11/26 07:24:30;;;;;;;;;19.50;10.00;;;;;6.27;85.48;100188.31;5040551;28;45521;-56
2021/11/26 07:26:55;;;;;;;;;14.00;10.00;;;;;6.27;85.92;100180.59;5040225;28;45831;-56
2021/11/26 07:29:21;;;;;;;;;18.00;13.00;;;;;6.34;86.08;100178.72;5015171;28;47083;-56
2021/11/26 07:31:46;;;;;;;;;16.25;11.50;;;;;6.37;85.75;100173.50;5034349;28;45371;-56
2021/11/26 07:34:12;;;;;;;;;13.75;12.00;;;;;6.39;85.71;100177.75;5034989;28;45326;-56
2021/11/26 07:36:37;;;;;;;;;16.25;12.50;;;;;6.40;85.03;100168.28;5040829;28;45483;-58
2021/11/26 07:39:03;;;;;;;;;19.00;11.75;;;;;6.38;85.10;100162.28;5015223;28;47237;-57
2021/11/26 07:41:29;;;;;;;;;11.75;10.00;;;;;6.37;85.06;100153.69;5025420;28;45503;-58
2021/11/26 07:43:54;;;;;;;;;9.75;9.75;;;;;6.33;84.74;100158.97;5039315;28;45461;-58
2021/11/26 07:46:19;;;;;;;;;15.00;10.50;;;;;6.35;84.87;100152.88;5018705;28;45364;-58
2021/11/26 07:48:45;;;;;;;;;13.00;9.00;;;;;6.37;84.47;100151.13;5040336;28;45451;-58
2021/11/26 07:51:10;;;;;;;;;16.00;9.25;;;;;6.39;84.38;100145.94;5033624;28;45231;-58
2021/11/26 07:53:36;;;;;;;;;11.75;6.00;;;;;6.39;84.05;100151.94;5033833;28;45265;-59
2021/11/26 07:56:02;;;;;;;;;14.25;10.25;;;;;6.41;84.13;100151.94;5040337;28;45238;-58
2021/11/26 07:58:27;;;;;;;;;14.75;12.50;;;;;6.42;83.95;100151.06;5039986;28;46061;-58
2021/11/26 08:00:55;;;;;;;;;15.75;13.75;;;;;6.47;83.56;100148.38;5040542;28;45264;-59
2021/11/26 08:03:21;;;;;;;;;16.25;11.50;;;;;6.50;83.49;100141.41;5014866;28;45331;-58
2021/11/26 08:05:48;;;;;;;;;18.00;13.50;;;;;6.50;82.79;100125.94;5040295;28;45509;-58
2021/11/26 08:08:14;;;;;;;;;15.00;10.00;;;;;6.52;83.36;100112.97;5040237;28;45439;-59
2021/11/26 08:10:39;;;;;;;;;12.50;10.50;;;;;6.62;83.46;100106.75;5022800;28;45269;-58
2021/11/26 08:13:06;;;;;;;;;10.75;9.25;;;;;6.65;83.35;100111.84;5039538;28;45357;-60
2021/11/26 08:15:33;;;;;;;;;10.25;7.50;;;;;6.66;82.72;100108.38;5040459;28;45448;-59
2021/11/26 08:18:00;;;;;;;;;10.00;9.00;;;;;6.65;82.81;100089.47;5014269;28;46670;-60
2021/11/26 08:20:27;;;;;;;;;9.00;9.00;;;;;6.65;82.52;100094.63;5040437;28;45351;-60
2021/11/26 08:22:53;;;;;;;;;11.00;8.75;;;;;6.65;81.71;100092.03;5014727;28;45395;-59
2021/11/26 08:25:21;;;;;;;;;14.00;13.00;;;;;6.64;81.43;100090.34;5040396;28;45603;-59
2021/11/26 08:27:47;;;;;;;;;14.25;13.00;;;;;6.65;81.39;100093.78;5039558;28;45347;-59
2021/11/26 08:30:13;;;;;;;;;10.00;9.00;;;;;6.63;81.46;100092.97;5040274;28;45441;-59
2021/11/26 08:32:39;;;;;;;;;12.25;9.50;;;;;6.62;81.09;100093.84;5028479;28;45322;-59
2021/11/26 08:35:05;;;;;;;;;15.25;12.00;;;;;6.65;81.50;100086.03;5040132;28;45488;-59
2021/11/26 08:37:31;;;;;;;;;14.50;11.50;;;;;6.66;81.29;100083.41;5035832;28;46280;-59
2021/11/26 08:39:57;;;;;;;;;15.50;14.00;;;;;6.71;81.86;100072.97;5039821;28;45372;-59
2021/11/26 08:42:23;;;;;;;;;9.25;9.00;;;;;6.82;81.25;100083.94;5046579;28;45541;-58
2021/11/26 08:44:48;;;;;;;;;11.50;10.00;;;;;6.86;81.17;100070.06;5036707;28;45507;-58
2021/11/26 08:47:14;;;;;;;;;15.25;12.25;;;;;6.88;81.22;100067.44;5014141;28;47121;-59
2021/11/26 08:49:39;;;;;;;;;12.75;10.25;;;;;6.95;80.84;100076.72;5040045;28;45415;-59
2021/11/26 08:52:05;;;;;;;;;10.00;9.25;;;;;6.93;79.87;100076.78;5026129;28;45454;-58
2021/11/26 08:54:30;;;;;;;;;10.25;7.50;;;;;6.87;79.91;100076.91;5039776;28;45241;-59
2021/11/26 08:56:56;;;;;;;;;8.00;7.50;;;;;6.84;79.47;100071.81;5038941;28;45963;-59
2021/11/26 08:59:25;;;;;;;;;10.00;10.00;;;;;6.82;80.23;100063.28;5039695;28;45810;-58
2021/11/26 09:01:53;;;;;;;;;9.25;9.25;;;;;6.85;79.99;100070.09;5039751;28;45425;-59
2021/11/26 09:04:23;;;;;;;;;12.75;9.50;;;;;6.92;80.06;100069.06;5039796;28;45526;-59
2021/11/26 09:06:49;;;;;;;;;12.00;10.25;;;;;6.98;79.14;100064.59;5013159;28;47200;-59
2021/11/26 09:09:15;;;;;;;;;12.25;10.50;;;;;7.01;79.23;100059.38;5039543;28;45366;-59
2021/11/26 09:11:41;;;;;;;;;10.75;9.00;;;;;7.03;78.96;100048.16;5034927;28;45332;-59
2021/11/26 09:14:07;;;;;;;;;14.75;11.00;;;;;7.08;79.99;100038.56;5017380;28;45448;-59
2021/11/26 09:16:34;;;;;;;;;11.25;8.00;;;;;7.22;79.73;100029.59;5038996;28;45365;-59
2021/11/26 09:19:00;;;;;;;;;7.50;7.00;;;;;7.33;79.13;100014.63;5038910;28;45257;-59
2021/11/26 09:21:25;;;;;;;;;8.25;8.00;;;;;7.40;78.03;100010.13;5039317;28;45412;-59
2021/11/26 09:23:50;;;;;;;;;10.25;7.00;;;;;7.51;78.12;100007.28;5039330;28;45407;-58
2021/11/26 09:26:16;;;;;;;;;13.25;9.50;;;;;7.63;77.44;100005.22;5038653;28;46029;-59
2021/11/26 09:28:42;;;;;;;;;10.50;10.00;;;;;7.99;78.07;99994.72;5039369;28;45268;-59
2021/11/26 09:31:07;;;;;;;;;10.00;8.00;;;;;8.81;74.16;99991.41;5038162;28;45438;-58
2021/11/26 09:33:35;;;;;;;;;14.25;8.00;;;;;9.04;71.98;99983.72;5029409;28;45253;-58
2021/11/26 09:36:06;;;;;;;;;8.50;7.25;;;;;8.94;71.44;99981.47;5039111;28;46084;-58
2021/11/26 09:38:32;;;;;;;;;8.25;6.50;;;;;8.83;72.67;99966.31;5038906;28;45206;-59
2021/11/26 09:40:58;;;;;;;;;6.25;5.50;;;;;8.83;72.54;99961.97;5041796;28;45334;-58
2021/11/26 09:43:24;;;;;;;;;6.75;5.00;;;;;8.91;72.90;99951.34;5040476;28;45504;-58
2021/11/26 09:45:50;;;;;;;;;7.50;6.75;;;;;8.99;69.91;99945.88;5038469;28;46988;-59
2021/11/26 09:48:15;;;;;;;;;6.50;6.00;;;;;8.95;71.59;99941.72;5039092;28;45445;-58
2021/11/26 09:50:41;;;;;;;;;7.00;6.50;;;;;9.15;70.68;99940.13;5036239;28;45454;-58
2021/11/26 09:53:27;;;;;;;;;4.00;4.00;;;;;9.20;71.96;99926.16;5028396;28;45357;-58
2021/11/26 09:56:03;;;;;;;;;6.25;6.25;;;;;9.12;69.29;99918.66;5019576;28;47247;-58
2021/11/26 09:58:31;;;;;;;;;3.75;3.75;;;;;8.94;68.13;99927.06;5041346;28;45356;-59
2021/11/26 10:00:59;;;;;;;;;6.75;4.00;;;;;8.74;69.38;99918.22;5042651;28;45359;-58
2021/11/26 10:03:44;;;;;;;;;6.00;3.00;;;;;8.68;69.04;99921.00;5042245;28;45316;-59
2021/11/26 10:06:26;;;;;;;;;5.75;5.00;;;;;8.49;68.71;99918.16;5042250;28;45296;-58
2021/11/26 10:09:05;;;;;;;;;6.75;5.75;;;;;8.38;67.83;99909.03;5042341;28;45738;-58
2021/11/26 10:11:37;;;;;;;;;9.75;5.00;;;;;8.19;66.74;99901.81;5041862;28;45385;-58
2021/11/26 10:14:37;;;;;;;;;11.25;3.25;;;;;8.07;68.48;99886.69;5042455;28;45564;-59
2021/11/26 10:17:20;;;;;;;;;3.00;3.00;;;;;7.99;66.89;99896.41;5039105;28;47017;-58
2021/11/26 10:19:51;;;;;;;;;11.75;10.25;;;;;7.94;68.41;99872.41;5041886;28;45291;-59
2021/11/26 10:22:19;;;;;;;;;13.25;10.50;;;;;7.90;67.94;99857.91;5042415;28;45425;-58
2021/11/26 10:25:01;;;;;;;;;10.50;7.00;;;;;7.76;67.58;99857.47;5039707;28;45372;-58
2021/11/26 10:27:54;;;;;;;;;10.00;7.75;;;;;7.73;68.51;99835.13;5041221;28;46480;-58
2021/11/26 10:30:19;;;;;;;;;20.50;17.50;;;;;7.79;68.91;99828.91;5042310;28;45228;-58
2021/11/26 10:33:05;;;;;;;;;9.25;7.50;;;;;7.88;68.55;99831.22;5030153;28;45378;-58
2021/11/26 10:35:37;;;;;;;;;5.25;5.00;;;;;7.90;68.05;99827.69;5041648;28;45269;-58
2021/11/26 10:38:07;;;;;;;;;7.75;7.00;;;;;7.93;68.67;99830.19;5041600;28;46203;-58
2021/11/26 10:40:43;;;;;;;;;12.25;7.25;;;;;8.01;67.85;99817.03;5041705;28;45380;-58
2021/11/26 10:43:39;;;;;;;;;3.00;2.00;;;;;8.04;67.72;99813.50;5049661;28;45243;-58
2021/11/26 10:59:44;;;;;;;;;7.50;5.00;;;;;8.10;75.73;99770.13;5041676;28;45874;-44
2021/11/26 11:02:10;;;;;;;;;7.75;6.75;;;;;8.41;78.26;99767.41;5041404;28;45446;-45
2021/11/26 11:04:37;;;;;;;;;3.50;3.50;;;;;8.80;69.64;99761.72;5041372;28;45261;-45
2021/11/26 11:07:09;;;;;;;;;5.50;5.50;;;;;9.07;69.14;99750.38;5040960;28;45241;-46
2021/11/26 11:09:47;;;;;;;;;6.75;6.00;;;;;9.23;73.70;99745.47;5038344;28;46219;-47
2021/11/26 11:12:14;;;;;;;;;6.00;3.00;;;;;9.60;71.67;99736.22;5032821;28;45476;-48
2021/11/26 11:14:52;;;;;;;;;8.75;5.50;;;;;9.82;68.90;99718.94;5029951;28;45287;-47
2021/11/26 11:17:19;;;;;;;;;9.50;7.25;;;;;9.91;69.85;99710.75;5029536;28;45423;-47
2021/11/26 11:19:44;;;;;;;;;6.25;6.00;;;;;10.06;65.65;99696.31;5031608;28;47014;-46
2021/11/26 11:22:10;;;;;;;;;6.50;6.50;;;;;10.09;62.70;99684.94;5031241;28;45445;-46
2021/11/26 11:24:35;;;;;;;;;21.00;18.25;;;;;9.96;65.90;99685.44;5010114;28;45382;-46
2021/11/26 11:27:01;;;;;;;;;9.75;9.50;;;;;9.85;63.62;99668.66;5024376;28;45589;-56
2021/11/26 11:29:28;;;;;;;;;18.00;13.50;;;;;9.56;64.80;99665.50;5034309;28;45274;-55
2021/11/26 11:31:58;;;;;;;;;40.75;33.00;;;;;9.23;64.24;99667.69;5030602;28;45875;-55
2021/11/26 11:34:30;;;;;;;;;20.25;15.75;;;;;9.04;65.01;99651.16;5036626;28;45346;-55
2021/11/26 11:36:59;;;;;;;;;18.75;12.50;;;;;8.79;65.29;99635.69;5040470;28;45411;-57
2021/11/26 11:39:25;;;;;;;;;8.25;8.00;;;;;8.71;65.87;99640.31;5040272;28;46180;-57